sensor_id;sensor_type;location;lat;lon;timestamp;P1;durP1;ratioP1;P2;durP2;ratioP2
19521;SDS011;9905;52.126;5.596;2022-10-31T00:01:23;9.75;;;8.93;;
19521;SDS011;9905;52.126;5.596;2022-10-31T00:03:51;9.80;;;9.05;;
19521;SDS011;9905;52.126;5.596;2022-10-31T00:06:18;9.30;;;8.50;;
19521;SDS011;9905;52.126;5.596;2022-10-31T00:08:46;10.15;;;9.15;;
19521;SDS011;9905;52.126;5.596;2022-10-31T00:11:13;10.57;;;9.57;;
19521;SDS011;9905;52.126;5.596;2022-10-31T00:13:40;10.40;;;9.48;;
19521;SDS011;9905;52.126;5.596;2022-10-31T00:16:14;12.70;;;10.27;;
19521;SDS011;9905;52.126;5.596;2022-10-31T00:18:41;10.02;;;9.23;;
19521;SDS011;9905;52.126;5.596;2022-10-31T00:21:07;9.95;;;9.13;;
19521;SDS011;9905;52.126;5.596;2022-10-31T00:23:34;10.18;;;9.27;;
19521;SDS011;9905;52.126;5.596;2022-10-31T00:26:01;9.60;;;8.80;;
19521;SDS011;9905;52.126;5.596;2022-10-31T00:28:28;10.13;;;9.27;;
19521;SDS011;9905;52.126;5.596;2022-10-31T00:30:58;10.10;;;9.20;;
19521;SDS011;9905;52.126;5.596;2022-10-31T00:33:27;10.80;;;9.90;;
19521;SDS011;9905;52.126;5.596;2022-10-31T00:35:54;9.23;;;8.63;;
19521;SDS011;9905;52.126;5.596;2022-10-31T00:38:21;9.73;;;8.90;;
19521;SDS011;9905;52.126;5.596;2022-10-31T00:40:48;10.48;;;8.93;;
19521;SDS011;9905;52.126;5.596;2022-10-31T00:43:15;9.65;;;8.90;;
19521;SDS011;9905;52.126;5.596;2022-10-31T00:45:42;10.00;;;9.10;;
19521;SDS011;9905;52.126;5.596;2022-10-31T00:48:09;9.90;;;9.15;;
19521;SDS011;9905;52.126;5.596;2022-10-31T00:50:37;10.07;;;9.27;;
19521;SDS011;9905;52.126;5.596;2022-10-31T00:53:04;11.38;;;9.55;;
19521;SDS011;9905;52.126;5.596;2022-10-31T00:55:31;10.50;;;9.60;;
19521;SDS011;9905;52.126;5.596;2022-10-31T00:57:58;10.77;;;9.85;;
19521;SDS011;9905;52.126;5.596;2022-10-31T01:00:25;10.63;;;9.20;;
19521;SDS011;9905;52.126;5.596;2022-10-31T01:02:52;10.00;;;9.30;;
19521;SDS011;9905;52.126;5.596;2022-10-31T01:05:18;10.27;;;9.43;;
19521;SDS011;9905;52.126;5.596;2022-10-31T01:07:46;10.48;;;9.45;;
19521;SDS011;9905;52.126;5.596;2022-10-31T01:10:13;9.88;;;9.00;;
19521;SDS011;9905;52.126;5.596;2022-10-31T01:12:41;10.70;;;9.48;;
19521;SDS011;9905;52.126;5.596;2022-10-31T01:15:10;9.82;;;8.98;;
19521;SDS011;9905;52.126;5.596;2022-10-31T01:17:38;9.82;;;8.82;;
19521;SDS011;9905;52.126;5.596;2022-10-31T01:20:06;10.43;;;9.43;;
19521;SDS011;9905;52.126;5.596;2022-10-31T01:22:35;9.52;;;8.82;;
19521;SDS011;9905;52.126;5.596;2022-10-31T01:25:04;10.25;;;9.23;;
19521;SDS011;9905;52.126;5.596;2022-10-31T01:27:31;9.32;;;8.60;;
19521;SDS011;9905;52.126;5.596;2022-10-31T01:29:58;10.65;;;9.27;;
19521;SDS011;9905;52.126;5.596;2022-10-31T01:32:26;10.20;;;9.32;;
19521;SDS011;9905;52.126;5.596;2022-10-31T01:34:53;10.05;;;8.50;;
19521;SDS011;9905;52.126;5.596;2022-10-31T01:37:20;8.65;;;8.10;;
19521;SDS011;9905;52.126;5.596;2022-10-31T01:39:47;8.65;;;8.15;;
19521;SDS011;9905;52.126;5.596;2022-10-31T01:42:17;9.60;;;8.68;;
19521;SDS011;9905;52.126;5.596;2022-10-31T01:44:53;9.00;;;8.40;;
19521;SDS011;9905;52.126;5.596;2022-10-31T01:47:29;9.50;;;8.90;;
19521;SDS011;9905;52.126;5.596;2022-10-31T01:50:00;10.05;;;9.15;;
19521;SDS011;9905;52.126;5.596;2022-10-31T01:52:30;8.77;;;8.13;;
19521;SDS011;9905;52.126;5.596;2022-10-31T01:55:03;10.02;;;9.32;;
19521;SDS011;9905;52.126;5.596;2022-10-31T01:57:34;9.43;;;8.80;;
19521;SDS011;9905;52.126;5.596;2022-10-31T02:00:04;9.32;;;8.68;;
19521;SDS011;9905;52.126;5.596;2022-10-31T02:02:34;10.00;;;9.18;;
19521;SDS011;9905;52.126;5.596;2022-10-31T02:05:01;10.25;;;9.45;;
19521;SDS011;9905;52.126;5.596;2022-10-31T02:07:31;10.30;;;9.50;;
19521;SDS011;9905;52.126;5.596;2022-10-31T02:10:02;10.18;;;9.38;;
19521;SDS011;9905;52.126;5.596;2022-10-31T02:12:30;10.88;;;9.77;;
19521;SDS011;9905;52.126;5.596;2022-10-31T02:15:00;10.73;;;9.82;;
19521;SDS011;9905;52.126;5.596;2022-10-31T02:17:27;10.10;;;9.13;;
19521;SDS011;9905;52.126;5.596;2022-10-31T02:19:58;9.93;;;9.07;;
19521;SDS011;9905;52.126;5.596;2022-10-31T02:22:34;8.98;;;8.27;;
19521;SDS011;9905;52.126;5.596;2022-10-31T02:25:10;9.88;;;8.98;;
19521;SDS011;9905;52.126;5.596;2022-10-31T02:27:51;10.00;;;9.10;;
19521;SDS011;9905;52.126;5.596;2022-10-31T02:30:32;10.73;;;9.85;;
19521;SDS011;9905;52.126;5.596;2022-10-31T02:33:14;10.95;;;9.70;;
19521;SDS011;9905;52.126;5.596;2022-10-31T02:35:51;10.80;;;9.90;;
19521;SDS011;9905;52.126;5.596;2022-10-31T02:38:25;9.73;;;9.02;;
19521;SDS011;9905;52.126;5.596;2022-10-31T02:40:59;9.18;;;8.48;;
19521;SDS011;9905;52.126;5.596;2022-10-31T02:43:32;10.23;;;9.23;;
19521;SDS011;9905;52.126;5.596;2022-10-31T02:46:07;9.65;;;8.88;;
19521;SDS011;9905;52.126;5.596;2022-10-31T02:48:42;9.40;;;8.73;;
19521;SDS011;9905;52.126;5.596;2022-10-31T02:51:11;9.00;;;8.30;;
19521;SDS011;9905;52.126;5.596;2022-10-31T02:53:38;9.55;;;8.85;;
19521;SDS011;9905;52.126;5.596;2022-10-31T02:56:06;9.07;;;8.48;;
19521;SDS011;9905;52.126;5.596;2022-10-31T02:58:38;8.77;;;7.95;;
19521;SDS011;9905;52.126;5.596;2022-10-31T03:01:20;9.52;;;8.73;;
19521;SDS011;9905;52.126;5.596;2022-10-31T03:04:01;9.32;;;8.43;;
19521;SDS011;9905;52.126;5.596;2022-10-31T03:06:41;8.82;;;8.13;;
19521;SDS011;9905;52.126;5.596;2022-10-31T03:09:13;8.40;;;7.90;;
19521;SDS011;9905;52.126;5.596;2022-10-31T03:11:49;7.93;;;7.53;;
19521;SDS011;9905;52.126;5.596;2022-10-31T03:14:23;8.02;;;7.63;;
19521;SDS011;9905;52.126;5.596;2022-10-31T03:16:56;9.20;;;8.40;;
19521;SDS011;9905;52.126;5.596;2022-10-31T03:19:29;9.18;;;8.57;;
19521;SDS011;9905;52.126;5.596;2022-10-31T03:22:01;8.23;;;7.72;;
19521;SDS011;9905;52.126;5.596;2022-10-31T03:24:34;8.10;;;7.60;;
19521;SDS011;9905;52.126;5.596;2022-10-31T03:27:05;7.90;;;7.45;;
19521;SDS011;9905;52.126;5.596;2022-10-31T03:29:36;8.48;;;7.88;;
19521;SDS011;9905;52.126;5.596;2022-10-31T03:32:04;7.95;;;7.50;;
19521;SDS011;9905;52.126;5.596;2022-10-31T03:34:35;7.45;;;7.05;;
19521;SDS011;9905;52.126;5.596;2022-10-31T03:37:04;7.10;;;6.68;;
19521;SDS011;9905;52.126;5.596;2022-10-31T03:39:33;7.68;;;7.28;;
19521;SDS011;9905;52.126;5.596;2022-10-31T03:42:03;8.35;;;7.85;;
19521;SDS011;9905;52.126;5.596;2022-10-31T03:44:33;7.57;;;7.07;;
19521;SDS011;9905;52.126;5.596;2022-10-31T03:47:01;7.03;;;6.63;;
19521;SDS011;9905;52.126;5.596;2022-10-31T03:49:30;6.82;;;6.53;;
19521;SDS011;9905;52.126;5.596;2022-10-31T03:51:59;7.18;;;6.68;;
19521;SDS011;9905;52.126;5.596;2022-10-31T03:54:30;6.93;;;6.53;;
19521;SDS011;9905;52.126;5.596;2022-10-31T03:57:05;7.30;;;6.90;;
19521;SDS011;9905;52.126;5.596;2022-10-31T03:59:39;7.78;;;7.07;;
19521;SDS011;9905;52.126;5.596;2022-10-31T04:02:10;7.32;;;6.93;;
19521;SDS011;9905;52.126;5.596;2022-10-31T04:04:40;7.80;;;7.50;;
19521;SDS011;9905;52.126;5.596;2022-10-31T04:07:10;8.10;;;7.60;;
19521;SDS011;9905;52.126;5.596;2022-10-31T04:09:39;8.00;;;7.40;;
19521;SDS011;9905;52.126;5.596;2022-10-31T04:12:10;7.90;;;7.50;;
19521;SDS011;9905;52.126;5.596;2022-10-31T04:14:41;8.45;;;7.95;;
19521;SDS011;9905;52.126;5.596;2022-10-31T04:17:10;8.30;;;7.78;;
19521;SDS011;9905;52.126;5.596;2022-10-31T04:19:39;7.40;;;7.10;;
19521;SDS011;9905;52.126;5.596;2022-10-31T04:22:06;8.07;;;7.57;;
19521;SDS011;9905;52.126;5.596;2022-10-31T04:24:34;7.53;;;7.13;;
19521;SDS011;9905;52.126;5.596;2022-10-31T04:27:03;7.60;;;7.20;;
19521;SDS011;9905;52.126;5.596;2022-10-31T04:29:30;7.32;;;7.03;;
19521;SDS011;9905;52.126;5.596;2022-10-31T04:31:57;7.50;;;7.10;;
19521;SDS011;9905;52.126;5.596;2022-10-31T04:34:23;7.85;;;7.35;;
19521;SDS011;9905;52.126;5.596;2022-10-31T04:36:50;7.68;;;7.32;;
19521;SDS011;9905;52.126;5.596;2022-10-31T04:39:17;8.88;;;8.40;;
19521;SDS011;9905;52.126;5.596;2022-10-31T04:41:45;8.77;;;8.18;;
19521;SDS011;9905;52.126;5.596;2022-10-31T04:44:11;8.77;;;8.27;;
19521;SDS011;9905;52.126;5.596;2022-10-31T04:46:38;8.27;;;7.88;;
19521;SDS011;9905;52.126;5.596;2022-10-31T04:49:05;8.20;;;7.80;;
19521;SDS011;9905;52.126;5.596;2022-10-31T04:51:31;8.30;;;7.68;;
19521;SDS011;9905;52.126;5.596;2022-10-31T04:53:58;8.80;;;8.30;;
19521;SDS011;9905;52.126;5.596;2022-10-31T04:56:25;8.10;;;7.70;;
19521;SDS011;9905;52.126;5.596;2022-10-31T04:58:53;8.55;;;8.07;;
19521;SDS011;9905;52.126;5.596;2022-10-31T05:01:20;8.93;;;8.43;;
19521;SDS011;9905;52.126;5.596;2022-10-31T05:03:46;8.07;;;7.65;;
19521;SDS011;9905;52.126;5.596;2022-10-31T05:06:13;8.57;;;8.02;;
19521;SDS011;9905;52.126;5.596;2022-10-31T05:08:41;8.40;;;7.82;;
19521;SDS011;9905;52.126;5.596;2022-10-31T05:11:08;8.45;;;8.05;;
19521;SDS011;9905;52.126;5.596;2022-10-31T05:13:34;8.68;;;8.25;;
19521;SDS011;9905;52.126;5.596;2022-10-31T05:16:02;9.35;;;8.88;;
19521;SDS011;9905;52.126;5.596;2022-10-31T05:18:29;8.35;;;7.82;;
19521;SDS011;9905;52.126;5.596;2022-10-31T05:20:56;8.25;;;7.75;;
19521;SDS011;9905;52.126;5.596;2022-10-31T05:23:23;7.88;;;7.55;;
19521;SDS011;9905;52.126;5.596;2022-10-31T05:25:49;8.25;;;7.85;;
19521;SDS011;9905;52.126;5.596;2022-10-31T05:28:16;7.65;;;7.15;;
19521;SDS011;9905;52.126;5.596;2022-10-31T05:30:43;8.55;;;8.10;;
19521;SDS011;9905;52.126;5.596;2022-10-31T05:33:11;8.55;;;8.15;;
19521;SDS011;9905;52.126;5.596;2022-10-31T05:35:37;8.38;;;8.07;;
19521;SDS011;9905;52.126;5.596;2022-10-31T05:38:04;9.10;;;8.38;;
19521;SDS011;9905;52.126;5.596;2022-10-31T05:40:31;8.30;;;7.80;;
19521;SDS011;9905;52.126;5.596;2022-10-31T05:42:57;8.55;;;8.13;;
19521;SDS011;9905;52.126;5.596;2022-10-31T05:45:24;9.25;;;8.75;;
19521;SDS011;9905;52.126;5.596;2022-10-31T05:47:51;8.85;;;8.25;;
19521;SDS011;9905;52.126;5.596;2022-10-31T05:50:20;8.80;;;8.30;;
19521;SDS011;9905;52.126;5.596;2022-10-31T05:52:53;9.05;;;8.48;;
19521;SDS011;9905;52.126;5.596;2022-10-31T05:55:21;7.95;;;7.57;;
19521;SDS011;9905;52.126;5.596;2022-10-31T05:57:47;8.60;;;8.20;;
19521;SDS011;9905;52.126;5.596;2022-10-31T06:00:14;8.60;;;8.20;;
19521;SDS011;9905;52.126;5.596;2022-10-31T06:02:41;7.68;;;7.18;;
19521;SDS011;9905;52.126;5.596;2022-10-31T06:05:08;7.05;;;6.75;;
19521;SDS011;9905;52.126;5.596;2022-10-31T06:07:36;7.40;;;7.10;;
19521;SDS011;9905;52.126;5.596;2022-10-31T06:10:04;8.35;;;7.95;;
19521;SDS011;9905;52.126;5.596;2022-10-31T06:12:32;7.82;;;7.43;;
19521;SDS011;9905;52.126;5.596;2022-10-31T06:15:02;10.70;;;8.18;;
19521;SDS011;9905;52.126;5.596;2022-10-31T06:17:30;9.07;;;8.52;;
19521;SDS011;9905;52.126;5.596;2022-10-31T06:19:57;9.40;;;8.90;;
19521;SDS011;9905;52.126;5.596;2022-10-31T06:22:23;9.18;;;8.68;;
19521;SDS011;9905;52.126;5.596;2022-10-31T06:24:52;9.63;;;9.13;;
19521;SDS011;9905;52.126;5.596;2022-10-31T06:27:18;10.02;;;9.32;;
19521;SDS011;9905;52.126;5.596;2022-10-31T06:29:45;9.57;;;9.07;;
19521;SDS011;9905;52.126;5.596;2022-10-31T06:32:12;9.50;;;9.00;;
19521;SDS011;9905;52.126;5.596;2022-10-31T06:34:39;9.55;;;9.05;;
19521;SDS011;9905;52.126;5.596;2022-10-31T06:37:07;11.35;;;10.55;;
19521;SDS011;9905;52.126;5.596;2022-10-31T06:39:34;10.98;;;10.18;;
19521;SDS011;9905;52.126;5.596;2022-10-31T06:42:02;10.95;;;10.25;;
19521;SDS011;9905;52.126;5.596;2022-10-31T06:44:29;12.85;;;11.95;;
19521;SDS011;9905;52.126;5.596;2022-10-31T06:46:56;13.23;;;12.20;;
19521;SDS011;9905;52.126;5.596;2022-10-31T06:49:23;12.73;;;11.93;;
19521;SDS011;9905;52.126;5.596;2022-10-31T06:51:50;13.20;;;12.30;;
19521;SDS011;9905;52.126;5.596;2022-10-31T06:54:17;13.13;;;12.02;;
19521;SDS011;9905;52.126;5.596;2022-10-31T06:56:45;12.85;;;11.52;;
19521;SDS011;9905;52.126;5.596;2022-10-31T06:59:13;12.57;;;11.50;;
19521;SDS011;9905;52.126;5.596;2022-10-31T07:01:40;12.80;;;11.73;;
19521;SDS011;9905;52.126;5.596;2022-10-31T07:04:07;13.52;;;12.35;;
19521;SDS011;9905;52.126;5.596;2022-10-31T07:06:34;13.55;;;12.32;;
19521;SDS011;9905;52.126;5.596;2022-10-31T07:09:01;13.27;;;12.25;;
19521;SDS011;9905;52.126;5.596;2022-10-31T07:11:27;13.38;;;12.38;;
19521;SDS011;9905;52.126;5.596;2022-10-31T07:13:54;13.70;;;12.50;;
19521;SDS011;9905;52.126;5.596;2022-10-31T07:16:22;13.50;;;12.50;;
19521;SDS011;9905;52.126;5.596;2022-10-31T07:18:49;13.35;;;12.27;;
19521;SDS011;9905;52.126;5.596;2022-10-31T07:21:16;13.50;;;12.45;;
19521;SDS011;9905;52.126;5.596;2022-10-31T07:23:42;15.23;;;13.95;;
19521;SDS011;9905;52.126;5.596;2022-10-31T07:26:09;15.02;;;13.68;;
19521;SDS011;9905;52.126;5.596;2022-10-31T07:28:36;16.02;;;14.65;;
19521;SDS011;9905;52.126;5.596;2022-10-31T07:31:03;16.10;;;14.70;;
19521;SDS011;9905;52.126;5.596;2022-10-31T07:33:31;15.98;;;14.60;;
19521;SDS011;9905;52.126;5.596;2022-10-31T07:35:57;16.35;;;14.90;;
19521;SDS011;9905;52.126;5.596;2022-10-31T07:38:24;16.95;;;15.45;;
19521;SDS011;9905;52.126;5.596;2022-10-31T07:40:51;17.83;;;16.13;;
19521;SDS011;9905;52.126;5.596;2022-10-31T07:43:18;18.05;;;16.23;;
19521;SDS011;9905;52.126;5.596;2022-10-31T07:45:48;18.30;;;16.65;;
19521;SDS011;9905;52.126;5.596;2022-10-31T07:48:16;18.00;;;16.17;;
19521;SDS011;9905;52.126;5.596;2022-10-31T07:50:44;18.40;;;16.73;;
19521;SDS011;9905;52.126;5.596;2022-10-31T07:53:12;18.95;;;17.38;;
19521;SDS011;9905;52.126;5.596;2022-10-31T07:55:40;18.20;;;16.52;;
19521;SDS011;9905;52.126;5.596;2022-10-31T07:58:07;18.15;;;16.55;;
19521;SDS011;9905;52.126;5.596;2022-10-31T08:00:35;19.15;;;17.15;;
19521;SDS011;9905;52.126;5.596;2022-10-31T08:03:03;18.30;;;16.63;;
19521;SDS011;9905;52.126;5.596;2022-10-31T08:05:31;17.88;;;16.38;;
19521;SDS011;9905;52.126;5.596;2022-10-31T08:08:00;18.60;;;16.70;;
19521;SDS011;9905;52.126;5.596;2022-10-31T08:10:27;19.30;;;17.17;;
19521;SDS011;9905;52.126;5.596;2022-10-31T08:12:55;17.80;;;16.15;;
19521;SDS011;9905;52.126;5.596;2022-10-31T08:15:23;18.88;;;17.23;;
19521;SDS011;9905;52.126;5.596;2022-10-31T08:17:51;19.48;;;17.15;;
19521;SDS011;9905;52.126;5.596;2022-10-31T08:20:18;18.63;;;16.92;;
19521;SDS011;9905;52.126;5.596;2022-10-31T08:22:52;19.27;;;17.50;;
19521;SDS011;9905;52.126;5.596;2022-10-31T08:25:23;24.80;;;18.48;;
19521;SDS011;9905;52.126;5.596;2022-10-31T08:27:51;19.85;;;17.90;;
19521;SDS011;9905;52.126;5.596;2022-10-31T08:30:19;20.48;;;18.25;;
19521;SDS011;9905;52.126;5.596;2022-10-31T08:32:46;24.08;;;20.85;;
19521;SDS011;9905;52.126;5.596;2022-10-31T08:35:13;24.73;;;20.52;;
19521;SDS011;9905;52.126;5.596;2022-10-31T08:37:40;22.80;;;20.45;;
19521;SDS011;9905;52.126;5.596;2022-10-31T08:40:07;24.73;;;21.17;;
19521;SDS011;9905;52.126;5.596;2022-10-31T08:42:37;23.15;;;20.73;;
19521;SDS011;9905;52.126;5.596;2022-10-31T08:45:04;24.80;;;22.20;;
19521;SDS011;9905;52.126;5.596;2022-10-31T08:47:31;23.90;;;21.40;;
19521;SDS011;9905;52.126;5.596;2022-10-31T08:49:57;23.23;;;20.92;;
19521;SDS011;9905;52.126;5.596;2022-10-31T08:52:24;23.85;;;21.40;;
19521;SDS011;9905;52.126;5.596;2022-10-31T08:54:51;28.25;;;22.45;;
19521;SDS011;9905;52.126;5.596;2022-10-31T08:57:18;25.73;;;22.98;;
19521;SDS011;9905;52.126;5.596;2022-10-31T08:59:46;24.67;;;22.13;;
19521;SDS011;9905;52.126;5.596;2022-10-31T09:02:12;33.30;;;23.80;;
19521;SDS011;9905;52.126;5.596;2022-10-31T09:04:39;31.77;;;23.38;;
19521;SDS011;9905;52.126;5.596;2022-10-31T09:07:06;27.85;;;22.83;;
19521;SDS011;9905;52.126;5.596;2022-10-31T09:09:33;28.58;;;23.05;;
19521;SDS011;9905;52.126;5.596;2022-10-31T09:11:59;25.95;;;22.45;;
19521;SDS011;9905;52.126;5.596;2022-10-31T09:14:26;28.35;;;25.33;;
19521;SDS011;9905;52.126;5.596;2022-10-31T09:16:54;29.95;;;24.77;;
19521;SDS011;9905;52.126;5.596;2022-10-31T09:19:21;28.38;;;24.35;;
19521;SDS011;9905;52.126;5.596;2022-10-31T09:21:51;29.75;;;24.30;;
19521;SDS011;9905;52.126;5.596;2022-10-31T09:24:18;30.00;;;24.13;;
19521;SDS011;9905;52.126;5.596;2022-10-31T09:26:45;26.73;;;23.75;;
19521;SDS011;9905;52.126;5.596;2022-10-31T09:29:11;26.88;;;23.92;;
19521;SDS011;9905;52.126;5.596;2022-10-31T09:31:38;26.20;;;23.55;;
19521;SDS011;9905;52.126;5.596;2022-10-31T09:34:06;26.55;;;23.10;;
19521;SDS011;9905;52.126;5.596;2022-10-31T09:36:33;28.02;;;23.38;;
19521;SDS011;9905;52.126;5.596;2022-10-31T09:38:59;24.17;;;21.58;;
19521;SDS011;9905;52.126;5.596;2022-10-31T09:41:28;22.83;;;20.60;;
19521;SDS011;9905;52.126;5.596;2022-10-31T09:44:07;21.60;;;19.48;;
19521;SDS011;9905;52.126;5.596;2022-10-31T09:46:46;19.90;;;18.20;;
19521;SDS011;9905;52.126;5.596;2022-10-31T09:49:28;19.48;;;17.45;;
19521;SDS011;9905;52.126;5.596;2022-10-31T09:52:03;16.63;;;15.13;;
19521;SDS011;9905;52.126;5.596;2022-10-31T09:54:38;16.52;;;15.05;;
19521;SDS011;9905;52.126;5.596;2022-10-31T09:57:10;16.65;;;15.25;;
19521;SDS011;9905;52.126;5.596;2022-10-31T09:59:40;15.88;;;14.20;;
19521;SDS011;9905;52.126;5.596;2022-10-31T10:02:11;16.08;;;14.02;;
19521;SDS011;9905;52.126;5.596;2022-10-31T10:04:44;14.35;;;13.05;;
19521;SDS011;9905;52.126;5.596;2022-10-31T10:07:19;13.77;;;12.48;;
19521;SDS011;9905;52.126;5.596;2022-10-31T10:09:50;13.50;;;12.25;;
19521;SDS011;9905;52.126;5.596;2022-10-31T10:12:19;14.65;;;12.98;;
19521;SDS011;9905;52.126;5.596;2022-10-31T10:17:53;12.23;;;11.13;;
19521;SDS011;9905;52.126;5.596;2022-10-31T10:20:31;11.27;;;10.23;;
19521;SDS011;9905;52.126;5.596;2022-10-31T10:23:11;10.93;;;10.05;;
19521;SDS011;9905;52.126;5.596;2022-10-31T10:25:49;11.15;;;10.05;;
19521;SDS011;9905;52.126;5.596;2022-10-31T10:28:21;10.52;;;9.38;;
19521;SDS011;9905;52.126;5.596;2022-10-31T10:30:53;13.52;;;9.90;;
19521;SDS011;9905;52.126;5.596;2022-10-31T10:33:24;10.65;;;9.27;;
19521;SDS011;9905;52.126;5.596;2022-10-31T10:35:58;11.75;;;10.55;;
19521;SDS011;9905;52.126;5.596;2022-10-31T10:38:30;11.02;;;9.90;;
19521;SDS011;9905;52.126;5.596;2022-10-31T10:41:03;11.75;;;10.55;;
19521;SDS011;9905;52.126;5.596;2022-10-31T10:43:36;12.88;;;10.07;;
19521;SDS011;9905;52.126;5.596;2022-10-31T10:46:12;11.77;;;10.57;;
19521;SDS011;9905;52.126;5.596;2022-10-31T10:49:05;13.98;;;10.73;;
19521;SDS011;9905;52.126;5.596;2022-10-31T10:51:40;15.68;;;11.40;;
19521;SDS011;9905;52.126;5.596;2022-10-31T10:57:07;14.48;;;10.85;;
19521;SDS011;9905;52.126;5.596;2022-10-31T10:59:46;12.60;;;10.90;;
19521;SDS011;9905;52.126;5.596;2022-10-31T11:02:16;17.35;;;12.10;;
19521;SDS011;9905;52.126;5.596;2022-10-31T11:04:43;15.75;;;11.90;;
19521;SDS011;9905;52.126;5.596;2022-10-31T11:07:14;12.10;;;10.43;;
19521;SDS011;9905;52.126;5.596;2022-10-31T11:09:41;14.15;;;12.57;;
19521;SDS011;9905;52.126;5.596;2022-10-31T11:12:09;15.40;;;11.88;;
19521;SDS011;9905;52.126;5.596;2022-10-31T11:14:45;13.02;;;11.15;;
19521;SDS011;9905;52.126;5.596;2022-10-31T11:17:22;14.93;;;11.27;;
19521;SDS011;9905;52.126;5.596;2022-10-31T11:20:02;15.85;;;10.68;;
19521;SDS011;9905;52.126;5.596;2022-10-31T11:22:33;14.95;;;12.02;;
19521;SDS011;9905;52.126;5.596;2022-10-31T11:25:00;15.73;;;11.52;;
19521;SDS011;9905;52.126;5.596;2022-10-31T11:27:37;19.15;;;12.43;;
19521;SDS011;9905;52.126;5.596;2022-10-31T11:30:05;18.33;;;11.68;;
19521;SDS011;9905;52.126;5.596;2022-10-31T11:32:32;16.70;;;12.35;;
19521;SDS011;9905;52.126;5.596;2022-10-31T11:35:01;15.55;;;11.30;;
19521;SDS011;9905;52.126;5.596;2022-10-31T11:37:40;18.75;;;11.98;;
19521;SDS011;9905;52.126;5.596;2022-10-31T11:40:14;13.70;;;10.60;;
19521;SDS011;9905;52.126;5.596;2022-10-31T11:42:43;13.77;;;9.77;;
19521;SDS011;9905;52.126;5.596;2022-10-31T11:45:13;14.25;;;9.63;;
19521;SDS011;9905;52.126;5.596;2022-10-31T11:47:42;14.30;;;10.93;;
19521;SDS011;9905;52.126;5.596;2022-10-31T11:50:17;14.23;;;10.55;;
19521;SDS011;9905;52.126;5.596;2022-10-31T11:52:48;16.25;;;11.07;;
19521;SDS011;9905;52.126;5.596;2022-10-31T11:55:17;15.07;;;9.65;;
19521;SDS011;9905;52.126;5.596;2022-10-31T11:57:56;14.82;;;9.73;;
19521;SDS011;9905;52.126;5.596;2022-10-31T12:00:24;12.82;;;9.90;;
19521;SDS011;9905;52.126;5.596;2022-10-31T12:03:03;13.57;;;9.85;;
19521;SDS011;9905;52.126;5.596;2022-10-31T12:05:36;16.77;;;11.15;;
19521;SDS011;9905;52.126;5.596;2022-10-31T12:08:07;15.32;;;11.23;;
19521;SDS011;9905;52.126;5.596;2022-10-31T12:10:37;14.63;;;10.88;;
19521;SDS011;9905;52.126;5.596;2022-10-31T12:13:17;16.17;;;11.93;;
19521;SDS011;9905;52.126;5.596;2022-10-31T12:15:58;17.35;;;11.63;;
19521;SDS011;9905;52.126;5.596;2022-10-31T12:18:34;14.65;;;11.95;;
19521;SDS011;9905;52.126;5.596;2022-10-31T12:21:21;15.55;;;11.85;;
19521;SDS011;9905;52.126;5.596;2022-10-31T12:24:02;17.45;;;12.45;;
19521;SDS011;9905;52.126;5.596;2022-10-31T12:26:39;19.52;;;12.80;;
19521;SDS011;9905;52.126;5.596;2022-10-31T12:29:21;17.58;;;13.18;;
19521;SDS011;9905;52.126;5.596;2022-10-31T12:32:02;20.67;;;13.63;;
19521;SDS011;9905;52.126;5.596;2022-10-31T12:34:45;22.65;;;14.02;;
19521;SDS011;9905;52.126;5.596;2022-10-31T12:37:23;21.00;;;13.68;;
19521;SDS011;9905;52.126;5.596;2022-10-31T12:40:03;23.45;;;15.27;;
19521;SDS011;9905;52.126;5.596;2022-10-31T12:42:49;23.25;;;15.27;;
19521;SDS011;9905;52.126;5.596;2022-10-31T12:45:36;27.75;;;15.15;;
19521;SDS011;9905;52.126;5.596;2022-10-31T12:48:19;20.65;;;14.38;;
19521;SDS011;9905;52.126;5.596;2022-10-31T12:51:09;22.83;;;15.75;;
19521;SDS011;9905;52.126;5.596;2022-10-31T12:53:44;30.52;;;16.60;;
19521;SDS011;9905;52.126;5.596;2022-10-31T12:56:25;26.92;;;16.92;;
19521;SDS011;9905;52.126;5.596;2022-10-31T12:59:08;32.10;;;16.60;;
19521;SDS011;9905;52.126;5.596;2022-10-31T13:01:41;30.35;;;17.20;;
19521;SDS011;9905;52.126;5.596;2022-10-31T13:04:14;26.70;;;15.98;;
19521;SDS011;9905;52.126;5.596;2022-10-31T13:06:46;25.77;;;16.67;;
19521;SDS011;9905;52.126;5.596;2022-10-31T13:09:17;24.23;;;15.80;;
19521;SDS011;9905;52.126;5.596;2022-10-31T13:11:48;23.88;;;16.08;;
19521;SDS011;9905;52.126;5.596;2022-10-31T13:14:21;25.45;;;15.93;;
19521;SDS011;9905;52.126;5.596;2022-10-31T13:16:51;20.98;;;15.02;;
19521;SDS011;9905;52.126;5.596;2022-10-31T13:19:22;25.60;;;16.23;;
19521;SDS011;9905;52.126;5.596;2022-10-31T13:21:53;21.58;;;15.32;;
19521;SDS011;9905;52.126;5.596;2022-10-31T13:24:27;24.92;;;14.40;;
19521;SDS011;9905;52.126;5.596;2022-10-31T13:27:01;27.88;;;15.20;;
19521;SDS011;9905;52.126;5.596;2022-10-31T13:29:30;20.90;;;14.63;;
19521;SDS011;9905;52.126;5.596;2022-10-31T13:32:04;22.45;;;14.30;;
19521;SDS011;9905;52.126;5.596;2022-10-31T13:34:32;22.73;;;14.45;;
19521;SDS011;9905;52.126;5.596;2022-10-31T13:37:04;19.80;;;14.05;;
19521;SDS011;9905;52.126;5.596;2022-10-31T13:39:42;24.63;;;14.70;;
19521;SDS011;9905;52.126;5.596;2022-10-31T13:42:18;20.92;;;14.82;;
19521;SDS011;9905;52.126;5.596;2022-10-31T13:44:49;25.35;;;14.90;;
19521;SDS011;9905;52.126;5.596;2022-10-31T13:47:23;20.88;;;14.18;;
19521;SDS011;9905;52.126;5.596;2022-10-31T13:49:51;27.20;;;15.23;;
19521;SDS011;9905;52.126;5.596;2022-10-31T13:52:31;21.95;;;14.80;;
19521;SDS011;9905;52.126;5.596;2022-10-31T13:54:57;25.15;;;15.45;;
19521;SDS011;9905;52.126;5.596;2022-10-31T13:57:29;25.00;;;14.52;;
19521;SDS011;9905;52.126;5.596;2022-10-31T13:59:58;25.70;;;14.50;;
19521;SDS011;9905;52.126;5.596;2022-10-31T14:02:27;21.98;;;14.73;;
19521;SDS011;9905;52.126;5.596;2022-10-31T14:04:56;24.17;;;15.65;;
19521;SDS011;9905;52.126;5.596;2022-10-31T14:07:25;24.77;;;15.43;;
19521;SDS011;9905;52.126;5.596;2022-10-31T14:09:54;20.70;;;14.20;;
19521;SDS011;9905;52.126;5.596;2022-10-31T14:12:24;24.63;;;14.77;;
19521;SDS011;9905;52.126;5.596;2022-10-31T14:14:57;20.40;;;14.77;;
19521;SDS011;9905;52.126;5.596;2022-10-31T14:17:27;20.73;;;14.23;;
19521;SDS011;9905;52.126;5.596;2022-10-31T14:20:00;21.75;;;14.98;;
19521;SDS011;9905;52.126;5.596;2022-10-31T14:22:46;25.55;;;15.38;;
19521;SDS011;9905;52.126;5.596;2022-10-31T14:25:26;23.15;;;13.73;;
19521;SDS011;9905;52.126;5.596;2022-10-31T14:27:57;24.92;;;14.75;;
19521;SDS011;9905;52.126;5.596;2022-10-31T14:30:25;21.70;;;13.95;;
19521;SDS011;9905;52.126;5.596;2022-10-31T14:32:55;25.80;;;14.65;;
19521;SDS011;9905;52.126;5.596;2022-10-31T14:35:27;24.52;;;14.68;;
19521;SDS011;9905;52.126;5.596;2022-10-31T14:38:24;27.98;;;14.23;;
19521;SDS011;9905;52.126;5.596;2022-10-31T14:41:14;27.02;;;15.05;;
19521;SDS011;9905;52.126;5.596;2022-10-31T14:43:57;23.35;;;13.35;;
19521;SDS011;9905;52.126;5.596;2022-10-31T14:46:46;23.48;;;14.10;;
19521;SDS011;9905;52.126;5.596;2022-10-31T14:49:22;17.02;;;13.38;;
19521;SDS011;9905;52.126;5.596;2022-10-31T14:52:00;19.58;;;13.13;;
19521;SDS011;9905;52.126;5.596;2022-10-31T14:54:28;24.02;;;13.77;;
19521;SDS011;9905;52.126;5.596;2022-10-31T14:56:59;20.70;;;12.30;;
19521;SDS011;9905;52.126;5.596;2022-10-31T14:59:32;18.20;;;11.90;;
19521;SDS011;9905;52.126;5.596;2022-10-31T15:02:07;20.48;;;12.95;;
19521;SDS011;9905;52.126;5.596;2022-10-31T15:04:38;20.38;;;11.95;;
19521;SDS011;9905;52.126;5.596;2022-10-31T15:07:06;18.77;;;12.43;;
19521;SDS011;9905;52.126;5.596;2022-10-31T15:09:37;16.13;;;11.68;;
19521;SDS011;9905;52.126;5.596;2022-10-31T15:12:20;19.42;;;12.52;;